world map with RJFY marked

RJFY - Airport

This information may not be accurate or current and is not valid for navigation or flight planning. No warranty of fitness for any purpose is made or implied.

flag of Kagoshimaflag of Japan

Donate via PayPal

Additional information is available on the NEW Great Circle Mapper

Location
City:  Kanoya, Kagoshima, Japan
ICAO:RJFY

Details
Type:Airport (Aerodrome, Airfield)
Use:Military
Latitude:31°22'03"N (31.367608)
Longitude:130°50'44"E (130.845456)
Datum:WGS 1984
Elevation:214 ft (65 m)
Runways:2
Longest:7382 × 148 ft (2250 × 45 m)

Time
Timezone:UTC+9 (DST+11)
Local Time:

Weather
METAR:RJFY  040839Z 24006KT 9999 BKN160 15/06 Q1018 RMK 6AC160 A3009

Related Locations
Nearby:
Farthest:SNPV: 12345 mi / 19868 km
Mostardas [Solidão], RS, BR

Find:

   beyond  
but within

Other Information
Maps:
Sources:

  


 


Great Circle Mapper   Great Circle Mapper
Great Circle Mapper FAQ   Great Circle Mapper FAQ
  Karl's Home Page
KLSē   KLSē Home
   GC on Facebook
Airlines of the World   Airlines of the World
Donate via PayPal


Copyright © 2004-2020, Karl L. Swartz. All rights reserved.
All trademarks mentioned herein belong to their respective owners.

Please see credits for attribution and copyright information.

Karl Swartz <karl@kls2.com>
  Powered by FreeBSD
Valid HTML 4.01!
Labeled with ICRA
hCard Microformat
Geo Microformat